ナンディ の空港の天気 - METARとTAF

ナンディ国際空港 ( NFFN / NAN ) - フィジー ナンディ (ビティレブ島)
飛行場実況気象(Metar)
観測時間11/13 14:00 FJST (11/13 01:00 UTC)
風向・風速北北西 7m/s
視程10km以上
天気現象
全天の4割程度の雲 雲底高度 910m
気温30℃
湿度62%
気圧1011hPa
METARNFFN 130100Z 33013KT 9999 SCT030 30/22 Q1011 NOSIG
過去の天気等 Google飛行場航空写真 Wunderground天気予報

過去48時間のMETAR

飛行場予報(TAF)
発表時間: 11/13 12:03 FJST (11/12 23:03 UTC)
予報対象時間: 13日13時 FJST ~ 14日13時 FJST
風向・風速南東 4m/s
視程10km以上
全天の4割程度の雲 雲底高度 910m
13日14時 FJST ~ 13日16時 FJST に徐々に
風向・風速西南西 4m/s
13日18時 FJST ~ 13日20時 FJST に徐々に
風向・風速南東 3m/s
TAF NFFN 122303Z 1300/1324 14008KT 9999 SCT030
BECMG 1301/1303 25008KT
BECMG 1305/1307 14005KT